Time;durP1;ratioP1;P1;durP2;ratioP2;P2;SDS_P1;SDS_P2;PMS_P1;PMS_P2;Temp;Humidity;BMP_temperature;BMP_pressure;BME280_temperature;BME280_humidity;BME280_pressure;Samples;Min_cycle;Max_cycle;Signal;HPM_P1;HPM_P2
2022/01/04 00:00:31;;;;;;;1.60;0.80;;;;;;;7.46;96.45;95588.22;2073069;28;20220;-60
2022/01/04 00:01:32;;;;;;;2.47;0.90;;;;;;;7.63;96.93;95620.88;2073017;28;20221;-60
2022/01/04 00:02:34;;;;;;;1.55;0.80;;;;;;;7.63;96.88;95613.88;2071644;28;20221;-60
2022/01/04 00:03:36;;;;;;;2.25;1.05;;;;;;;7.66;96.74;95607.59;2073116;28;20198;-60
2022/01/04 00:04:38;;;;;;;1.08;0.77;;;;;;;7.62;97.12;95612.22;2072911;28;20198;-60
2022/01/04 00:05:39;;;;;;;2.35;1.08;;;;;;;7.60;97.68;95616.69;2073012;28;20198;-59
2022/01/04 00:06:41;;;;;;;2.45;0.75;;;;;;;7.58;97.76;95626.41;2073005;28;20201;-59
2022/01/04 00:07:43;;;;;;;2.10;0.90;;;;;;;7.59;98.03;95607.22;2072531;28;20220;-60
2022/01/04 00:08:45;;;;;;;1.60;0.80;;;;;;;7.54;97.77;95604.13;2072966;28;20208;-60
2022/01/04 00:09:46;;;;;;;3.80;1.30;;;;;;;7.41;98.00;95578.13;2072823;28;20214;-60
2022/01/04 00:10:49;;;;;;;2.15;0.70;;;;;;;7.59;97.96;95604.63;2072809;28;20233;-60
2022/01/04 00:14:12;;;;;;;2.15;0.70;;;;;;;7.55;98.06;95587.56;2071322;28;20243;-60
2022/01/04 00:15:14;;;;;;;2.25;0.70;;;;;;;7.58;97.78;95591.72;2072749;28;20205;-60
2022/01/04 00:16:15;;;;;;;2.08;1.15;;;;;;;7.56;98.16;95586.59;2072938;28;20675;-60
2022/01/04 00:17:17;;;;;;;1.23;0.70;;;;;;;7.53;98.34;95579.84;2072518;28;20193;-60
2022/01/04 00:18:19;;;;;;;2.40;0.90;;;;;;;7.37;98.04;95542.00;2072810;28;20209;-60
2022/01/04 00:19:22;;;;;;;1.83;0.90;;;;;;;7.55;98.13;95574.53;2072478;28;20211;-60
2022/01/04 00:20:23;;;;;;;2.55;0.90;;;;;;;7.49;98.48;95573.19;2072971;28;20794;-60
2022/01/04 00:21:25;;;;;;;3.92;1.30;;;;;;;7.54;98.61;95583.28;2072869;28;20205;-60
2022/01/04 00:22:26;;;;;;;1.75;0.75;;;;;;;7.51;98.03;95560.88;2072637;28;20236;-60
2022/01/04 00:23:28;;;;;;;1.90;0.65;;;;;;;7.56;98.47;95572.75;2071532;28;20197;-60
2022/01/04 00:24:29;;;;;;;2.33;0.88;;;;;;;7.29;98.12;95527.75;2072313;28;20209;-60
2022/01/04 00:25:32;;;;;;;4.78;0.90;;;;;;;7.59;98.17;95570.75;2072651;28;20209;-60
2022/01/04 00:26:33;;;;;;;2.22;0.95;;;;;;;7.57;98.28;95572.66;2072199;28;20651;-60
2022/01/04 00:27:35;;;;;;;1.50;0.90;;;;;;;7.55;98.51;95573.69;2072470;28;20224;-60
2022/01/04 00:28:36;;;;;;;2.30;0.85;;;;;;;7.54;98.57;95567.66;2072961;28;20209;-60
2022/01/04 00:29:38;;;;;;;2.45;0.70;;;;;;;7.58;98.13;95574.28;2071759;28;20194;-60
2022/01/04 00:30:40;;;;;;;2.80;1.15;;;;;;;7.46;98.00;95551.75;2072891;28;20197;-60
2022/01/04 00:31:42;;;;;;;0.93;0.70;;;;;;;7.45;98.18;95553.53;2072848;28;20697;-60
2022/01/04 00:32:43;;;;;;;2.38;0.80;;;;;;;7.65;97.98;95567.69;2072187;28;20217;-60
2022/01/04 00:33:44;;;;;;;3.20;0.80;;;;;;;7.61;97.72;95561.06;2072747;28;20216;-62
2022/01/04 00:34:46;;;;;;;1.60;0.82;;;;;;;7.59;98.20;95567.31;2072694;28;20201;-60
2022/01/04 00:35:48;;;;;;;4.95;0.95;;;;;;;7.61;97.89;95566.25;2072886;28;20194;-60
2022/01/04 00:36:49;;;;;;;1.45;0.95;;;;;;;7.61;98.28;95560.22;2072875;28;20208;-60
2022/01/04 00:37:51;;;;;;;1.98;0.93;;;;;;;7.66;97.69;95556.34;2072383;28;20221;-60
2022/01/04 00:38:52;;;;;;;2.45;0.93;;;;;;;7.60;97.88;95551.56;2072402;28;20204;-60
2022/01/04 00:39:53;;;;;;;3.20;1.10;;;;;;;7.60;97.85;95548.94;2072738;28;20584;-60
2022/01/04 00:40:55;;;;;;;1.42;0.93;;;;;;;7.59;98.13;95562.94;2072755;28;20278;-60
2022/01/04 00:41:57;;;;;;;2.92;0.90;;;;;;;7.48;98.23;95540.25;2072648;28;20209;-60
2022/01/04 00:42:59;;;;;;;1.10;0.88;;;;;;;7.58;98.08;95556.06;2072191;28;20234;-60
2022/01/04 00:44:01;;;;;;;3.90;1.20;;;;;;;7.51;98.17;95527.03;2071205;28;20204;-60
2022/01/04 00:45:03;;;;;;;1.23;1.00;;;;;;;7.65;97.89;95539.03;2072812;28;20205;-60
2022/01/04 00:46:05;;;;;;;2.60;1.20;;;;;;;7.63;98.25;95543.53;2072576;28;20678;-60
2022/01/04 00:47:08;;;;;;;1.90;0.80;;;;;;;7.58;98.33;95532.59;2072359;28;20201;-60
2022/01/04 00:49:32;;;;;;;1.20;1.00;;;;;;;7.61;98.42;95544.59;2070285;28;20208;-60
2022/01/04 00:50:36;;;;;;;3.53;0.90;;;;;;;7.59;98.37;95534.28;2072313;28;20232;-61
2022/01/04 00:51:43;;;;;;;1.70;0.85;;;;;;;7.62;97.76;95531.44;2072733;28;20202;-61
2022/01/04 00:52:45;;;;;;;2.85;0.85;;;;;;;7.64;97.77;95531.31;2071135;28;20220;-61
2022/01/04 00:53:46;;;;;;;2.55;1.30;;;;;;;7.48;97.68;95513.38;2072748;28;20198;-60
2022/01/04 00:54:47;;;;;;;2.03;0.90;;;;;;;7.65;97.59;95531.22;2072790;28;20201;-61
2022/01/04 00:55:49;;;;;;;1.17;0.70;;;;;;;7.60;98.02;95528.09;2072714;28;20202;-60
2022/01/04 00:56:50;;;;;;;1.10;0.80;;;;;;;7.52;98.28;95520.03;2072730;28;20205;-60
2022/01/04 00:57:52;;;;;;;5.28;1.05;;;;;;;7.53;98.13;95517.31;2071976;28;20225;-61
2022/01/04 00:58:53;;;;;;;1.23;0.82;;;;;;;7.61;98.13;95514.16;2072724;28;20198;-61
2022/01/04 00:59:55;;;;;;;4.70;1.02;;;;;;;7.62;97.82;95514.97;2072785;28;20197;-60
2022/01/04 01:00:56;;;;;;;3.67;0.90;;;;;;;7.58;97.87;95514.38;2072503;28;20206;-60
2022/01/04 01:01:58;;;;;;;2.15;0.80;;;;;;;7.56;98.05;95505.81;2072455;28;20665;-60
2022/01/04 01:03:00;;;;;;;1.23;0.85;;;;;;;7.64;98.03;95503.47;2069695;28;20234;-61
2022/01/04 01:04:04;;;;;;;1.92;0.80;;;;;;;7.59;97.68;95503.00;2072571;28;20252;-61
2022/01/04 01:05:07;;;;;;;1.70;0.70;;;;;;;7.60;97.42;95491.63;2070865;28;20201;-60
2022/01/04 01:06:09;;;;;;;2.38;0.80;;;;;;;7.63;97.60;95490.59;2072518;28;20197;-61
2022/01/04 01:07:11;;;;;;;1.10;0.80;;;;;;;7.71;97.63;95490.84;2072156;28;20202;-61
2022/01/04 01:08:12;;;;;;;1.13;0.80;;;;;;;7.66;97.56;95485.13;2072643;28;20585;-60
2022/01/04 01:09:14;;;;;;;2.88;1.02;;;;;;;7.57;97.26;95473.63;2072395;28;20204;-61
2022/01/04 01:11:35;;;;;;;1.42;1.13;;;;;;;7.22;97.95;95418.94;2069804;28;20197;-61
2022/01/04 01:12:36;;;;;;;2.45;0.82;;;;;;;7.65;97.83;95471.28;2071793;28;20241;-61
2022/01/04 01:13:38;;;;;;;2.15;0.80;;;;;;;7.60;98.18;95469.97;2072030;28;20189;-61
2022/01/04 01:14:40;;;;;;;3.28;0.93;;;;;;;7.57;98.74;95467.59;2072201;28;20225;-61
2022/01/04 01:15:44;;;;;;;6.50;0.82;;;;;;;7.41;98.32;95434.03;2071999;28;20194;-60
2022/01/04 01:16:46;;;;;;;1.48;0.80;;;;;;;7.56;97.94;95465.94;2071814;28;20193;-61
2022/01/04 01:17:48;;;;;;;2.03;0.80;;;;;;;7.63;98.49;95475.78;2071653;28;20226;-61
2022/01/04 01:18:49;;;;;;;1.70;0.80;;;;;;;7.64;97.55;95468.78;2071014;28;20208;-60
2022/01/04 01:19:51;;;;;;;1.30;0.82;;;;;;;7.63;97.97;95473.16;2072392;28;20194;-61
2022/01/04 01:20:53;;;;;;;1.65;0.95;;;;;;;7.61;98.44;95469.84;2072099;28;20193;-60
2022/01/04 01:21:54;;;;;;;1.38;0.75;;;;;;;7.59;98.29;95469.13;2071521;28;20209;-60
2022/01/04 01:22:56;;;;;;;1.52;0.80;;;;;;;7.54;98.05;95458.22;2071966;28;20233;-60
2022/01/04 01:23:57;;;;;;;1.30;0.77;;;;;;;7.61;98.38;95463.81;2072344;28;20205;-60
2022/01/04 01:24:59;;;;;;;8.43;1.05;;;;;;;7.61;98.18;95466.44;2072279;28;20198;-60
2022/01/04 01:26:01;;;;;;;1.10;0.82;;;;;;;7.64;98.12;95467.00;2072052;28;20221;-60
2022/01/04 01:27:03;;;;;;;1.67;1.10;;;;;;;7.64;98.01;95464.41;2072146;28;20198;-60
2022/01/04 01:28:04;;;;;;;2.30;0.90;;;;;;;7.65;97.61;95458.25;2071182;28;20225;-60
2022/01/04 01:29:06;;;;;;;5.65;1.00;;;;;;;7.61;97.58;95456.81;2070992;28;20202;-60
2022/01/04 01:30:08;;;;;;;0.90;0.80;;;;;;;7.65;98.37;95449.59;2072492;28;20194;-60
2022/01/04 01:31:10;;;;;;;1.65;0.90;;;;;;;7.60;98.51;95449.94;2072279;28;20197;-60
2022/01/04 01:32:11;;;;;;;1.58;0.95;;;;;;;7.66;98.35;95454.72;2072119;28;20299;-60
2022/01/04 01:33:14;;;;;;;2.00;0.85;;;;;;;7.30;98.59;95404.41;2072325;28;20204;-60
2022/01/04 01:34:15;;;;;;;2.10;1.00;;;;;;;7.58;98.74;95451.81;2072408;28;20550;-60
2022/01/04 01:35:18;;;;;;;2.55;0.80;;;;;;;7.58;98.65;95443.19;2072440;28;20629;-60
2022/01/04 01:36:20;;;;;;;1.95;0.98;;;;;;;7.65;98.21;95434.78;2070354;28;20205;-60
2022/01/04 01:37:21;;;;;;;2.08;0.80;;;;;;;7.58;98.50;95425.78;2072131;28;20208;-60
2022/01/04 01:38:23;;;;;;;1.83;1.05;;;;;;;7.52;99.45;95429.66;2072571;28;20204;-60
2022/01/04 01:39:25;;;;;;;1.63;0.98;;;;;;;7.29;99.48;95397.56;2072479;28;20193;-61
2022/01/04 01:40:27;;;;;;;4.95;1.45;;;;;;;7.52;99.11;95424.44;2072413;28;20202;-60
2022/01/04 01:41:29;;;;;;;2.00;1.00;;;;;;;7.59;98.83;95422.25;2072481;28;20194;-60
2022/01/04 01:42:31;;;;;;;1.58;0.70;;;;;;;7.60;98.53;95423.88;2072124;28;20232;-60
2022/01/04 01:43:32;;;;;;;3.00;0.90;;;;;;;7.60;98.47;95416.06;2072557;28;20210;-60
2022/01/04 01:44:35;;;;;;;1.10;0.85;;;;;;;7.68;98.43;95402.44;2072462;28;20194;-60
2022/01/04 01:45:37;;;;;;;1.00;0.70;;;;;;;7.65;98.08;95390.50;2073941;28;20197;-60
2022/01/04 01:46:38;;;;;;;6.50;0.85;;;;;;;7.56;97.81;95388.59;2073465;28;20281;-60
2022/01/04 01:47:41;;;;;;;1.65;0.70;;;;;;;7.58;98.37;95396.28;2073785;28;20260;-60
2022/01/04 01:48:42;;;;;;;1.70;0.80;;;;;;;7.41;98.95;95374.09;2072380;28;20281;-60
2022/01/04 01:49:44;;;;;;;4.53;0.90;;;;;;;7.48;99.23;95383.94;2073847;28;20197;-59
2022/01/04 01:50:46;;;;;;;3.05;1.20;;;;;;;7.46;99.42;95387.63;2073905;28;20212;-60
2022/01/04 01:51:48;;;;;;;2.70;0.90;;;;;;;7.39;99.55;95391.63;2074034;28;20637;-60
2022/01/04 01:52:51;;;;;;;1.33;0.80;;;;;;;6.90;99.96;95316.25;2073274;28;20243;-60
2022/01/04 01:53:53;;;;;;;4.55;1.48;;;;;;;7.24;99.56;95360.59;2073409;28;20197;-60
2022/01/04 01:54:55;;;;;;;3.40;1.00;;;;;;;7.45;99.56;95388.59;2074137;28;20197;-60
2022/01/04 01:55:57;;;;;;;1.60;0.80;;;;;;;7.37;100.00;95386.56;2073717;28;20528;-60
2022/01/04 01:56:58;;;;;;;1.33;1.00;;;;;;;7.40;100.00;95395.91;2074073;28;20205;-60
2022/01/04 01:58:00;;;;;;;1.23;0.95;;;;;;;7.47;99.72;95391.91;2073206;28;20236;-60
2022/01/04 01:59:01;;;;;;;1.90;0.90;;;;;;;7.49;99.43;95388.22;2074079;28;20220;-60
2022/01/04 02:00:07;;;;;;;2.10;0.95;;;;;;;7.46;99.54;95378.03;2073975;28;20212;-60
2022/01/04 02:01:11;;;;;;;2.00;1.02;;;;;;;7.53;99.22;95381.84;2073347;28;20189;-60
2022/01/04 02:02:13;;;;;;;4.15;0.90;;;;;;;7.56;99.26;95372.94;2072789;28;20291;-60
2022/01/04 02:03:15;;;;;;;2.90;0.80;;;;;;;7.46;99.58;95367.59;2073698;28;20237;-60
2022/01/04 02:04:17;;;;;;;1.85;0.98;;;;;;;7.46;100.00;95359.78;2073178;28;20224;-60
2022/01/04 02:05:21;;;;;;;2.47;1.02;;;;;;;7.38;99.92;95351.75;2073833;28;20637;-60
2022/01/04 02:06:23;;;;;;;2.35;1.13;;;;;;;7.36;99.97;95364.03;2074056;28;20205;-60
2022/01/04 02:07:26;;;;;;;3.50;0.90;;;;;;;7.50;99.85;95349.97;2072555;28;20194;-60
2022/01/04 02:08:28;;;;;;;2.90;0.93;;;;;;;7.55;98.91;95358.28;2072632;28;20198;-59
2022/01/04 02:09:30;;;;;;;2.50;1.00;;;;;;;7.43;99.38;95359.19;2073877;28;20232;-60
2022/01/04 02:10:32;;;;;;;1.60;0.95;;;;;;;7.43;99.61;95353.97;2073971;28;20202;-60
2022/01/04 02:11:35;;;;;;;2.67;1.10;;;;;;;7.38;100.00;95353.53;2074009;28;20205;-60
2022/01/04 02:12:44;;;;;;;3.17;1.13;;;;;;;7.39;100.00;95347.34;2073524;28;20744;-60
2022/01/04 02:13:45;;;;;;;2.75;1.10;;;;;;;7.44;100.00;95353.06;2073865;28;20198;-60
2022/01/04 02:14:50;;;;;;;1.45;1.00;;;;;;;7.51;99.89;95342.06;2072251;28;20208;-60
2022/01/04 02:15:52;;;;;;;3.22;0.85;;;;;;;7.51;99.21;95346.44;2073860;28;20549;-60
2022/01/04 02:16:54;;;;;;;1.95;1.02;;;;;;;7.46;99.31;95336.34;2073042;28;20209;-60
2022/01/04 02:17:56;;;;;;;1.60;0.90;;;;;;;7.50;99.63;95340.38;2073446;28;20246;-59
2022/01/04 02:19:06;;;;;;;2.78;0.90;;;;;;;7.51;99.55;95336.84;2073991;28;20219;-60
2022/01/04 02:20:08;;;;;;;2.05;0.90;;;;;;;7.51;99.08;95326.41;2073440;28;20197;-60
2022/01/04 02:21:10;;;;;;;4.18;1.10;;;;;;;7.52;99.37;95322.84;2071522;28;20215;-59
2022/01/04 02:22:12;;;;;;;2.67;1.10;;;;;;;7.24;99.44;95274.66;2073414;28;20242;-60
2022/01/04 02:23:13;;;;;;;4.40;1.02;;;;;;;7.48;99.61;95320.59;2073763;28;20251;-60
2022/01/04 02:24:15;;;;;;;3.13;0.93;;;;;;;7.37;99.35;95287.59;2073721;28;20236;-60
2022/01/04 02:25:17;;;;;;;3.70;1.27;;;;;;;7.50;99.68;95319.53;2073716;28;20201;-60
2022/01/04 02:26:18;;;;;;;1.20;0.77;;;;;;;7.31;99.68;95277.59;2073796;28;20208;-59
2022/01/04 02:27:21;;;;;;;1.58;1.13;;;;;;;7.41;99.71;95309.00;2073411;28;20973;-60
2022/01/04 02:28:22;;;;;;;2.10;1.00;;;;;;;7.47;99.36;95305.94;2072525;28;20609;-60
2022/01/04 02:29:23;;;;;;;3.10;1.10;;;;;;;7.41;99.60;95298.56;2073803;28;20664;-60
2022/01/04 02:30:25;;;;;;;3.55;1.00;;;;;;;7.40;99.76;95292.53;2073771;28;20206;-60
2022/01/04 02:31:27;;;;;;;2.42;1.00;;;;;;;7.43;100.00;95300.13;2073747;28;20609;-60
2022/01/04 02:32:29;;;;;;;5.32;0.90;;;;;;;7.14;99.75;95232.06;2073346;28;20221;-60
2022/01/04 02:33:30;;;;;;;2.17;1.05;;;;;;;7.54;99.23;95283.66;2072164;28;20206;-60
2022/01/04 02:34:32;;;;;;;1.83;1.00;;;;;;;7.46;99.45;95275.63;2073706;28;20551;-60
2022/01/04 02:35:33;;;;;;;1.20;1.05;;;;;;;7.51;98.81;95278.69;2073830;28;20646;-59
2022/01/04 02:36:39;;;;;;;4.00;1.05;;;;;;;7.54;98.61;95273.25;2073861;28;21084;-60
2022/01/04 02:37:41;;;;;;;1.55;1.00;;;;;;;7.37;99.21;95260.69;2073012;28;20234;-60
2022/01/04 02:38:42;;;;;;;5.88;1.40;;;;;;;7.46;99.19;95262.59;2073693;28;20645;-60
2022/01/04 02:39:44;;;;;;;6.45;1.10;;;;;;;7.42;99.73;95266.38;2073749;28;20201;-60
2022/01/04 02:40:45;;;;;;;5.45;1.15;;;;;;;7.39;99.71;95262.25;2073658;28;20208;-60
2022/01/04 02:41:47;;;;;;;1.60;1.05;;;;;;;7.38;99.60;95246.72;2073615;28;20209;-60
2022/01/04 02:42:48;;;;;;;1.05;0.95;;;;;;;7.44;99.23;95254.06;2073164;28;20232;-60
2022/01/04 02:43:50;;;;;;;1.52;0.90;;;;;;;7.46;99.21;95250.38;2073830;28;20202;-60
2022/01/04 02:44:51;;;;;;;5.15;1.20;;;;;;;7.50;98.97;95250.97;2073755;28;20202;-60
2022/01/04 02:45:53;;;;;;;1.95;1.10;;;;;;;7.43;99.46;95257.59;2073754;28;20284;-60
2022/01/04 02:46:54;;;;;;;1.58;1.00;;;;;;;7.44;99.16;95251.47;2073455;28;20236;-60
2022/01/04 02:47:57;;;;;;;1.38;0.95;;;;;;;7.32;99.64;95238.44;2073123;28;20309;-60
2022/01/04 02:48:59;;;;;;;2.30;1.20;;;;;;;7.35;99.77;95245.19;2073425;28;20204;-60
2022/01/04 02:50:00;;;;;;;1.88;1.05;;;;;;;7.35;100.00;95247.81;2073241;28;20224;-60
2022/01/04 02:51:02;;;;;;;1.50;0.93;;;;;;;7.33;100.00;95240.09;2073369;28;20649;-60
2022/01/04 02:52:04;;;;;;;2.55;0.98;;;;;;;7.46;99.65;95250.38;2073463;28;20538;-60
2022/01/04 02:53:05;;;;;;;2.38;0.90;;;;;;;7.45;99.19;95235.72;2073055;28;20237;-60
2022/01/04 02:54:07;;;;;;;3.30;1.40;;;;;;;7.40;99.65;95235.25;2073294;28;20202;-60
2022/01/04 02:55:11;;;;;;;2.90;1.50;;;;;;;7.30;99.69;95219.50;2073364;28;20206;-60
2022/01/04 02:56:14;;;;;;;1.20;1.00;;;;;;;7.39;99.57;95244.00;2072592;28;20293;-61
2022/01/04 02:57:15;;;;;;;4.95;1.40;;;;;;;7.52;98.91;95238.66;2072792;28;20615;-60
2022/01/04 02:58:17;;;;;;;2.35;1.00;;;;;;;7.28;99.64;95210.16;2073108;28;20557;-61
2022/01/04 02:59:19;;;;;;;1.83;0.98;;;;;;;7.42;99.86;95229.91;2073132;28;20204;-61
2022/01/04 03:00:23;;;;;;;1.15;0.90;;;;;;;7.47;98.89;95236.44;2072888;28;20229;-60
2022/01/04 03:01:24;;;;;;;2.40;1.00;;;;;;;7.47;98.26;95228.63;2072371;28;20222;-60
2022/01/04 03:02:26;;;;;;;2.30;1.20;;;;;;;7.28;98.87;95203.16;2071715;28;20579;-60
2022/01/04 03:03:28;;;;;;;2.58;0.93;;;;;;;7.53;98.96;95232.53;2073568;28;20210;-60
2022/01/04 03:04:29;;;;;;;1.50;0.90;;;;;;;7.39;98.37;95204.09;2073567;28;20197;-60
2022/01/04 03:05:31;;;;;;;1.85;1.20;;;;;;;7.55;98.19;95225.41;2073445;28;20205;-60
2022/01/04 03:06:33;;;;;;;4.93;1.10;;;;;;;7.59;97.58;95234.63;2073178;28;20194;-60
2022/01/04 03:07:34;;;;;;;2.28;1.20;;;;;;;7.54;97.87;95226.34;2072888;28;20213;-60
2022/01/04 03:08:36;;;;;;;1.63;1.00;;;;;;;7.53;97.76;95228.13;2073358;28;20205;-60
2022/01/04 03:09:37;;;;;;;4.10;1.23;;;;;;;7.61;97.76;95229.31;2073414;28;20205;-60
2022/01/04 03:10:39;;;;;;;2.88;1.15;;;;;;;7.61;97.37;95222.31;2073231;28;20197;-60
2022/01/04 03:11:40;;;;;;;3.30;1.02;;;;;;;7.62;96.65;95223.97;2073463;28;20223;-60
2022/01/04 03:12:43;;;;;;;1.52;1.10;;;;;;;7.57;97.07;95214.88;2072875;28;20221;-59
2022/01/04 03:13:44;;;;;;;1.25;1.15;;;;;;;7.56;97.44;95216.63;2073546;28;20674;-60
2022/01/04 03:14:46;;;;;;;1.38;1.00;;;;;;;7.62;97.29;95223.13;2073428;28;20200;-60
2022/01/04 03:15:47;;;;;;;1.73;1.17;;;;;;;7.61;96.93;95222.31;2073457;28;20190;-60
2022/01/04 03:16:49;;;;;;;2.78;1.00;;;;;;;7.67;96.40;95221.00;2073228;28;20259;-60
2022/01/04 03:17:50;;;;;;;2.10;1.35;;;;;;;7.63;97.01;95212.59;2072744;28;20232;-60
2022/01/04 03:19:09;;;;;;;5.88;1.45;;;;;;;7.65;97.30;95208.09;2072669;28;20201;-60
2022/01/04 03:20:12;;;;;;;2.97;1.23;;;;;;;7.65;96.98;95197.69;2072430;28;20205;-60
2022/01/04 03:21:13;;;;;;;2.65;1.13;;;;;;;7.66;96.80;95199.34;2073238;28;20194;-61
2022/01/04 03:22:15;;;;;;;4.22;1.50;;;;;;;7.69;96.16;95186.06;2072977;28;20201;-60
2022/01/04 03:23:16;;;;;;;3.95;1.92;;;;;;;7.84;95.67;95199.66;2073303;28;20197;-60
2022/01/04 03:24:18;;;;;;;1.75;1.00;;;;;;;7.83;96.32;95189.34;2071381;28;20544;-61
2022/01/04 03:25:19;;;;;;;3.20;1.27;;;;;;;7.82;96.09;95191.13;2072656;28;20197;-60
2022/01/04 03:26:21;;;;;;;2.17;1.08;;;;;;;7.84;96.01;95188.38;2073256;28;20216;-60
2022/01/04 03:27:22;;;;;;;2.40;1.20;;;;;;;7.86;96.00;95183.88;2072935;28;20202;-60
2022/01/04 03:28:24;;;;;;;4.05;1.17;;;;;;;7.58;95.41;95138.34;2073362;28;20222;-61
2022/01/04 03:29:26;;;;;;;1.88;0.95;;;;;;;7.85;96.08;95182.22;2073412;28;20194;-60
2022/01/04 03:30:27;;;;;;;2.20;1.20;;;;;;;7.79;96.27;95182.72;2073220;28;20224;-60
2022/01/04 03:31:29;;;;;;;2.20;1.35;;;;;;;7.63;96.61;95144.03;2073064;28;20204;-60
2022/01/04 03:32:31;;;;;;;1.95;1.00;;;;;;;7.77;97.32;95174.19;2072145;28;20233;-60
2022/01/04 03:33:34;;;;;;;2.03;1.25;;;;;;;7.73;97.25;95169.22;2073109;28;20194;-60
2022/01/04 03:34:36;;;;;;;2.15;1.30;;;;;;;7.81;96.35;95175.59;2073211;28;20194;-61
2022/01/04 03:35:37;;;;;;;1.92;0.90;;;;;;;7.84;96.24;95178.81;2073095;28;20672;-60
2022/01/04 03:36:39;;;;;;;2.53;1.00;;;;;;;7.85;95.81;95171.81;2073122;28;20198;-61
2022/01/04 03:37:41;;;;;;;3.55;1.38;;;;;;;7.76;95.78;95146.47;2072761;28;20266;-60
2022/01/04 03:38:42;;;;;;;4.03;1.45;;;;;;;7.86;96.28;95163.88;2072443;28;20198;-60
2022/01/04 03:39:44;;;;;;;3.25;1.33;;;;;;;7.78;96.30;95155.00;2071798;28;20197;-61
2022/01/04 03:40:47;;;;;;;1.45;0.95;;;;;;;7.86;95.80;95155.19;2071755;28;20210;-61
2022/01/04 03:41:50;;;;;;;2.10;1.10;;;;;;;7.84;96.30;95159.72;2073098;28;20186;-60
2022/01/04 03:42:52;;;;;;;1.80;1.00;;;;;;;7.83;95.94;95151.06;2072778;28;20224;-60
2022/01/04 03:43:54;;;;;;;3.88;1.00;;;;;;;7.85;96.08;95149.16;2073233;28;20205;-60
2022/01/04 03:44:55;;;;;;;1.88;0.93;;;;;;;7.83;96.12;95142.44;2073305;28;20710;-59
2022/01/04 03:45:57;;;;;;;2.95;0.90;;;;;;;7.64;96.01;95106.59;2073093;28;20291;-59
2022/01/04 03:46:59;;;;;;;13.15;1.40;;;;;;;7.86;96.08;95137.81;2072338;28;20202;-59
2022/01/04 03:48:00;;;;;;;3.22;1.15;;;;;;;7.83;96.26;95135.44;2071923;28;20225;-60
2022/01/04 03:49:05;;;;;;;2.35;1.13;;;;;;;7.79;96.91;95134.03;2073240;28;20574;-60
2022/01/04 03:50:07;;;;;;;3.08;1.33;;;;;;;7.78;96.74;95144.56;2073099;28;20198;-61
2022/01/04 03:51:09;;;;;;;1.92;1.00;;;;;;;7.77;96.63;95138.53;2073087;28;20197;-60
2022/01/04 03:52:10;;;;;;;2.53;1.27;;;;;;;7.80;97.18;95138.31;2072570;28;20530;-60
2022/01/04 03:53:12;;;;;;;5.25;1.50;;;;;;;7.77;96.83;95133.31;2073060;28;20521;-60
2022/01/04 03:54:13;;;;;;;1.48;0.90;;;;;;;7.72;96.77;95110.25;2073220;28;20213;-61
2022/01/04 03:55:15;;;;;;;2.15;1.20;;;;;;;7.77;97.20;95122.09;2071394;28;20213;-60
2022/01/04 03:56:17;;;;;;;1.95;1.10;;;;;;;7.81;96.83;95132.13;2073046;28;20295;-60
2022/01/04 03:57:18;;;;;;;1.80;0.93;;;;;;;7.84;96.60;95124.06;2072579;28;20206;-60
2022/01/04 03:58:19;;;;;;;1.23;0.90;;;;;;;7.84;96.79;95133.66;2073088;28;20588;-60
2022/01/04 03:59:21;;;;;;;2.15;1.00;;;;;;;7.57;96.88;95079.41;2073125;28;20205;-60
2022/01/04 04:00:22;;;;;;;4.40;1.33;;;;;;;7.81;97.33;95128.69;2073093;28;20538;-60
2022/01/04 04:01:24;;;;;;;1.67;1.02;;;;;;;7.80;97.44;95124.41;2072974;28;20196;-60
2022/01/04 04:02:26;;;;;;;3.90;0.95;;;;;;;7.79;97.75;95113.19;2072303;28;20717;-61
2022/01/04 04:03:28;;;;;;;1.75;0.90;;;;;;;7.83;97.25;95108.53;2073004;28;20551;-61
2022/01/04 04:04:30;;;;;;;1.67;0.95;;;;;;;7.83;97.58;95111.16;2071970;28;20198;-61
2022/01/04 04:05:31;;;;;;;1.38;0.80;;;;;;;7.78;97.43;95108.09;2072934;28;20446;-60
2022/01/04 04:06:33;;;;;;;2.20;1.25;;;;;;;7.84;96.95;95113.63;2072406;28;20197;-60
2022/01/04 04:07:34;;;;;;;1.73;1.10;;;;;;;7.81;97.10;95113.88;2072037;28;20233;-61
2022/01/04 04:08:36;;;;;;;1.55;1.10;;;;;;;7.81;97.14;95107.84;2073059;28;20205;-60
2022/01/04 04:09:37;;;;;;;0.80;0.73;;;;;;;7.83;97.32;95106.75;2072635;28;20198;-60
2022/01/04 04:10:39;;;;;;;1.25;0.88;;;;;;;7.83;97.66;95108.53;2072766;28;20653;-60
2022/01/04 04:11:41;;;;;;;1.10;0.80;;;;;;;7.80;97.88;95095.75;2072885;28;20205;-61
2022/01/04 04:12:42;;;;;;;1.52;0.90;;;;;;;7.83;97.21;95098.13;2072372;28;20214;-61
2022/01/04 04:13:44;;;;;;;1.50;1.02;;;;;;;7.83;97.59;95095.50;2072933;28;20201;-61
2022/01/04 04:14:45;;;;;;;2.15;1.05;;;;;;;7.82;97.59;95106.88;2072898;28;20652;-61
2022/01/04 04:15:52;;;;;;;1.75;1.00;;;;;;;7.72;97.51;95078.97;2071862;28;20193;-61
2022/01/04 04:16:54;;;;;;;2.50;1.00;;;;;;;7.84;97.68;95095.41;2072908;28;20681;-61
2022/01/04 04:17:56;;;;;;;4.03;1.23;;;;;;;7.81;97.63;95087.81;2072468;28;20225;-61
2022/01/04 04:18:57;;;;;;;1.90;1.50;;;;;;;7.79;98.44;95088.91;2072819;28;20621;-61
2022/01/04 04:19:58;;;;;;;1.60;1.02;;;;;;;7.73;98.81;95079.81;2072899;28;20245;-60
2022/01/04 04:21:00;;;;;;;1.85;1.02;;;;;;;7.77;98.69;95083.00;2072609;28;20200;-61
2022/01/04 04:22:02;;;;;;;1.45;0.90;;;;;;;7.51;98.28;95033.84;2072619;28;20202;-61
2022/01/04 04:23:05;;;;;;;0.90;0.80;;;;;;;7.80;98.03;95080.97;2071973;28;20225;-61
2022/01/04 04:24:07;;;;;;;3.78;0.90;;;;;;;7.58;98.43;95050.59;2072100;28;20634;-61
2022/01/04 04:25:09;;;;;;;6.05;1.08;;;;;;;7.45;98.97;95018.69;2072947;28;20201;-61
2022/01/04 04:26:10;;;;;;;1.40;0.80;;;;;;;7.76;99.00;95076.09;2072302;28;20197;-61
2022/01/04 04:27:13;;;;;;;1.27;1.05;;;;;;;7.79;98.78;95073.25;2071762;28;20209;-61
2022/01/04 04:28:14;;;;;;;3.28;0.95;;;;;;;7.78;99.05;95069.00;2072973;28;20204;-61
2022/01/04 04:29:16;;;;;;;4.47;0.90;;;;;;;7.75;99.63;95074.47;2072921;28;20570;-61
2022/01/04 04:30:18;;;;;;;1.90;0.75;;;;;;;7.72;99.73;95076.38;2072902;28;20205;-61
2022/01/04 04:31:19;;;;;;;0.90;0.80;;;;;;;7.69;99.37;95062.75;2072784;28;20208;-60
2022/01/04 04:32:20;;;;;;;2.75;1.27;;;;;;;7.76;99.57;95063.06;2071839;28;20221;-61
2022/01/04 04:33:22;;;;;;;2.75;1.00;;;;;;;7.68;99.44;95045.47;2072561;28;20664;-61
2022/01/04 04:34:24;;;;;;;3.13;1.00;;;;;;;7.77;99.01;95065.56;2071955;28;20213;-61
2022/01/04 04:35:26;;;;;;;2.45;0.80;;;;;;;7.76;99.55;95060.47;2072820;28;20198;-60
2022/01/04 04:36:27;;;;;;;1.20;0.80;;;;;;;7.78;99.01;95050.75;2072837;28;20652;-61
2022/01/04 04:37:29;;;;;;;1.75;0.80;;;;;;;7.80;98.88;95057.50;2072376;28;20581;-60
2022/01/04 04:38:30;;;;;;;2.63;1.00;;;;;;;7.80;99.11;95061.88;2072220;28;20209;-61
2022/01/04 04:39:32;;;;;;;3.35;0.90;;;;;;;7.68;99.18;95029.81;2072803;28;20673;-60
2022/01/04 04:40:34;;;;;;;1.60;0.90;;;;;;;7.70;99.40;95044.41;2072815;28;20289;-60
2022/01/04 04:41:36;;;;;;;1.67;0.80;;;;;;;7.77;99.62;95044.72;2072659;28;20194;-61
2022/01/04 04:42:38;;;;;;;2.28;0.93;;;;;;;7.79;99.77;95053.22;2072426;28;20226;-60
2022/01/04 04:43:39;;;;;;;0.90;0.75;;;;;;;7.77;99.78;95047.31;2072699;28;20192;-61
2022/01/04 04:44:41;;;;;;;3.33;1.00;;;;;;;7.73;100.00;95049.34;2072718;28;20190;-60
2022/01/04 04:45:42;;;;;;;1.48;0.82;;;;;;;7.73;100.00;95041.53;2071004;28;20205;-61
2022/01/04 04:46:45;;;;;;;2.60;1.17;;;;;;;7.74;100.00;95042.34;2072672;28;20200;-61
2022/01/04 04:47:46;;;;;;;3.10;0.90;;;;;;;7.73;100.00;95049.34;2072248;28;20228;-60
2022/01/04 04:48:48;;;;;;;2.53;1.00;;;;;;;7.77;99.63;95042.13;2072795;28;20200;-62
2022/01/04 04:49:49;;;;;;;1.00;0.80;;;;;;;7.81;99.88;95051.31;2072833;28;20201;-60
2022/01/04 04:50:51;;;;;;;1.00;0.80;;;;;;;7.73;100.00;95028.50;2072685;28;20633;-61
2022/01/04 04:51:54;;;;;;;1.40;0.95;;;;;;;7.79;99.94;95039.38;2072813;28;20198;-60
2022/01/04 04:52:57;;;;;;;0.98;0.68;;;;;;;7.83;99.81;95038.19;2071634;28;20269;-61
2022/01/04 04:53:58;;;;;;;1.17;0.75;;;;;;;7.80;100.00;95038.41;2072823;28;20194;-61
2022/01/04 04:54:59;;;;;;;1.42;0.88;;;;;;;7.78;100.00;95037.72;2072701;28;20201;-62
2022/01/04 04:56:01;;;;;;;1.30;0.70;;;;;;;7.72;100.00;95023.41;2071834;28;20212;-61
2022/01/04 04:57:03;;;;;;;2.75;0.80;;;;;;;7.86;99.73;95030.09;2072578;28;20223;-61
2022/01/04 04:58:04;;;;;;;6.10;0.80;;;;;;;7.87;99.52;95022.16;2072247;28;20246;-61
2022/01/04 04:59:08;;;;;;;1.38;0.60;;;;;;;7.83;100.00;95019.94;2072656;28;20220;-60
2022/01/04 05:00:10;;;;;;;1.20;0.73;;;;;;;7.82;100.00;95018.25;2072739;28;20208;-61